Latest Weather Observations for Hindmarsh Island

IDS60801

Issued at 10:31 am CST Tuesday 16 August 2022 (issued every 10 minutes, with the page automatically refreshed every 10 minutes)

About weather observations | Map of weather stations | Latest weather observations for SA | Other Formats
Station Details ID: 023894 Name: HINDMARSH ISLAND AWS Lat: -35.52 Lon: 138.82 Height: 11.0 m
Data from the previous 72 hours. | See also: Recent months at Hindmarsh Island
Date/Time
CST
Temp
°C
App
Temp
°C
Dew
Point
°C
Rel
Hum
%
Delta-T
°C
Wind Press
QNH
hPa
Press
MSL
hPa
Rain since
9am
mm
Dir  Spd
km/h
Gust
km/h
Spd
kts
Gust
kts
16/10:30am 14.4 8.3 8.4 67 3.0 SSW 30 35 16 19 1020.0 1020.0 0.0
16/10:00am 14.2 7.7 8.2 67 3.0 SSW 32 35 17 19 1019.8 1019.8 0.0
16/09:30am 14.0 7.3 7.5 65 3.2 SSW 32 37 17 20 1019.5 1019.5 0.0
16/09:00am 13.8 7.7 8.4 70 2.7 SSW 30 35 16 19 1019.4 1019.4 0.4
16/08:30am 13.7 7.1 7.7 67 2.9 SSW 32 39 17 21 1019.1 1019.1 0.4
16/08:00am 13.2 5.9 7.4 68 2.8 SSW 35 46 19 25 1018.9 1018.9 0.4
16/07:30am 12.7 6.0 8.0 73 2.3 SW 33 39 18 21 1018.7 1018.7 0.4
16/07:00am 12.4 5.5 7.3 71 2.5 SW 33 43 18 23 1018.1 1018.1 0.4
16/06:30am 12.6 5.4 7.5 71 2.5 SW 35 44 19 24 1017.7 1017.7 0.4
16/06:00am 12.4 5.7 7.5 72 2.4 SW 32 39 17 21 1016.9 1016.9 0.4
16/05:30am 12.3 6.7 8.6 78 1.8 SW 28 37 15 20 1016.5 1016.5 0.4
16/05:00am 12.1 6.7 9.5 84 1.3 SSW 28 37 15 20 1015.9 1015.9 0.4
16/04:30am 12.1 5.7 8.6 79 1.7 SSW 32 37 17 20 1015.6 1015.6 0.4
16/04:00am 12.3 6.7 8.8 79 1.7 SSW 28 37 15 20 1015.3 1015.3 0.4
16/03:30am 12.3 6.7 8.6 78 1.8 SSW 28 37 15 20 1014.8 1014.8 0.4
16/03:00am 12.4 5.5 8.7 78 1.8 SSW 35 43 19 23 1014.5 1014.5 0.4
16/02:30am 12.2 5.8 9.4 83 1.4 SSW 33 41 18 22 1014.8 1014.8 0.4
16/02:00am 12.5 5.6 7.4 71 2.5 SW 33 41 18 22 1015.0 1015.0 0.4
16/01:30am 12.6 5.5 8.1 74 2.2 SW 35 46 19 25 1015.1 1015.1 0.4
16/01:00am 12.6 5.9 8.1 74 2.2 SW 33 44 18 24 1015.0 1015.0 0.4
16/12:30am 12.6 5.3 7.3 70 2.6 SW 35 46 19 25 1014.7 1014.7 0.4
16/12:00am 12.6 5.4 7.7 72 2.4 SSW 35 43 19 23 1014.6 1014.6 0.4
 
Date/Time
CST
Temp
°C
App
Temp
°C
Dew
Point
°C
Rel
Hum
%
Delta-T
°C
Wind Press
QNH
hPa
Press
MSL
hPa
Rain since
9am
mm
Dir  Spd
km/h
Gust
km/h
Spd
kts
Gust
kts
15/11:30pm 12.6 5.8 7.9 73 2.3 SSW 33 41 18 22 1014.2 1014.2 0.4
15/11:00pm 12.8 5.3 7.9 72 2.4 SSW 37 46 20 25 1013.9 1013.9 0.4
15/10:30pm 12.8 5.7 7.9 72 2.4 SSW 35 46 19 25 1013.8 1013.8 0.4
15/10:00pm 12.8 6.0 7.9 72 2.4 SSW 33 43 18 23 1013.5 1013.5 0.4
15/09:30pm 12.6 6.9 8.3 75 2.1 SW 28 37 15 20 1013.4 1013.4 0.4
15/09:00pm 12.9 6.3 8.4 74 2.2 SSW 33 43 18 23 1013.1 1013.1 0.4
15/08:30pm 12.8 6.3 8.3 74 2.2 SW 32 39 17 21 1012.9 1012.9 0.4
15/08:00pm 12.8 6.8 8.5 75 2.1 SW 30 37 16 20 1012.8 1012.8 0.4
15/07:30pm 12.7 6.6 8.4 75 2.1 SSW 30 37 16 20 1012.5 1012.5 0.4
15/07:00pm 12.8 7.6 8.9 77 2.0 SSW 26 32 14 17 1012.1 1012.1 0.4
15/06:30pm 12.2 9.0 9.8 85 1.2 SW 17 22 9 12 1011.8 1011.8 0.4
15/06:00pm 11.5 8.0 8.7 83 1.4 SW 17 20 9 11 1011.2 1011.2 0.4
15/05:30pm 12.3 8.3 9.1 81 1.6 SW 20 26 11 14 1010.7 1010.7 0.2
15/05:00pm 12.6 8.8 8.9 78 1.9 SW 19 28 10 15 1010.4 1010.4 0.2
15/04:30pm 12.9 8.3 8.0 72 2.4 SW 22 28 12 15 1010.1 1010.1 0.2
15/04:00pm 13.0 9.1 9.3 78 1.9 SW 20 28 11 15 1009.7 1009.7 0.2
15/03:30pm 13.1 7.1 8.8 75 2.2 SSW 30 35 16 19 1009.6 1009.6 0.2
15/03:00pm 14.1 8.7 9.5 74 2.4 SSW 28 33 15 18 1009.3 1009.3 0.2
15/02:30pm 14.2 9.9 9.2 72 2.6 SW 22 28 12 15 1009.2 1009.2 0.2
15/02:00pm 13.2 7.7 9.1 76 2.1 SSW 28 33 15 18 1008.9 1008.9 0.2
15/01:30pm 12.9 7.2 8.4 74 2.2 SW 28 37 15 20 1009.1 1009.1 0.2
15/01:00pm 13.7 9.4 10.7 82 1.6 SSW 24 30 13 16 1009.4 1009.4 0.2
15/12:30pm 13.5 9.4 10.1 80 1.8 SSW 22 26 12 14 1009.4 1009.4 0.0
15/12:00pm 14.4 10.3 10.2 76 2.2 SSW 22 28 12 15 1009.7 1009.7 0.0
15/11:30am 14.6 9.9 9.2 70 2.8 SW 24 30 13 16 1009.8 1009.8 0.0
15/11:00am 14.9 11.0 9.3 69 2.9 WSW 20 26 11 14 1009.9 1009.9 0.0
15/10:30am 14.4 10.4 8.4 67 3.0 W 19 26 10 14 1009.9 1009.9 0.0
15/10:00am 14.1 10.4 8.1 67 3.0 W 17 24 9 13 1010.0 1010.0 0.0
15/09:30am 13.4 10.8 9.5 77 2.0 WNW 13 19 7 10 1010.2 1010.2 0.0
15/09:00am 12.1 9.0 8.8 80 1.6 WNW 15 19 8 10 1010.1 1010.1 2.6
15/08:30am 11.9 9.8 9.6 86 1.2 NW 11 13 6 7 1010.1 1010.1 2.6
15/08:00am 11.8 9.7 9.7 87 1.1 W 11 15 6 8 1010.2 1010.2 2.6
15/07:30am 11.5 8.6 9.8 89 0.9 WSW 15 20 8 11 1010.0 1010.0 2.6
15/07:00am 11.3 8.6 9.0 86 1.1 W 13 17 7 9 1009.7 1009.7 2.6
15/06:30am 11.4 8.7 8.8 84 1.3 W 13 19 7 10 1009.7 1009.7 2.6
15/06:00am 10.9 8.0 8.1 83 1.4 W 13 17 7 9 1009.6 1009.6 2.6
15/05:30am 11.0 8.5 8.4 84 1.3 W 11 15 6 8 1009.6 1009.6 2.6
15/05:00am 11.3 7.4 8.5 83 1.4 W 19 24 10 13 1009.5 1009.5 2.6
15/04:30am 11.2 7.6 8.4 83 1.4 W 17 24 9 13 1009.7 1009.7 2.6
15/04:00am 11.0 9.0 8.8 86 1.1 W 9 13 5 7 1009.8 1009.8 2.6
15/03:30am 11.0 8.7 8.9 87 1.0 NW 11 15 6 8 1009.9 1009.9 2.4
15/03:00am 11.0 8.6 8.8 86 1.1 NW 11 15 6 8 1010.1 1010.1 2.4
15/02:30am 10.9 8.4 8.1 83 1.4 NW 11 15 6 8 1010.4 1010.4 2.4
15/02:00am 11.3 8.6 8.9 85 1.2 WNW 13 15 7 8 1010.6 1010.6 2.4
15/01:30am 11.5 8.5 9.4 87 1.1 WNW 15 20 8 11 1010.9 1010.9 2.4
15/01:00am 11.5 9.1 9.9 90 0.8 WNW 13 17 7 9 1011.3 1011.3 2.4
15/12:30am 11.6 9.2 10.0 90 0.8 WNW 13 15 7 8 1011.4 1011.4 2.4
15/12:00am 11.5 9.5 10.1 91 0.7 WNW 11 15 6 8 1011.8 1011.8 2.4
 
Date/Time
CST
Temp
°C
App
Temp
°C
Dew
Point
°C
Rel
Hum
%
Delta-T
°C
Wind Press
QNH
hPa
Press
MSL
hPa
Rain since
9am
mm
Dir  Spd
km/h
Gust
km/h
Spd
kts
Gust
kts
14/11:30pm 11.6 9.2 10.0 90 0.8 WNW 13 17 7 9 1011.9 1011.9 2.4
14/11:00pm 11.8 9.5 10.4 91 0.7 W 13 17 7 9 1012.1 1012.1 2.4
14/10:30pm 11.8 10.3 10.4 91 0.7 W 9 15 5 8 1012.3 1012.3 2.4
14/10:00pm 11.8 10.2 10.2 90 0.8 W 9 13 5 7 1012.5 1012.5 2.2
14/09:30pm 11.8 9.7 9.9 88 1.0 NW 11 15 6 8 1012.8 1012.8 0.6
14/09:00pm 12.1 9.7 10.0 87 1.1 WNW 13 19 7 10 1012.9 1012.9 0.2
14/08:30pm 12.4 9.4 9.4 82 1.5 W 15 24 8 13 1013.0 1013.0 0.0
14/08:00pm 12.3 11.0 9.3 82 1.5 W 6 7 3 4 1013.0 1013.0 0.0
14/07:30pm 12.6 11.1 9.2 80 1.7 W 7 9 4 5 1012.9 1012.9 0.0
14/07:00pm 12.5 10.2 9.1 80 1.7 WNW 11 15 6 8 1012.8 1012.8 0.0
14/06:30pm 12.4 10.0 10.1 86 1.2 WSW 13 20 7 11 1012.6 1012.6 0.0
14/06:00pm 12.8 10.1 10.2 84 1.3 SW 15 19 8 10 1012.6 1012.6 0.0
14/05:30pm 13.0 10.5 9.8 81 1.6 SW 13 17 7 9 1012.7 1012.7 0.0
14/05:00pm 13.2 10.0 9.8 80 1.7 SW 17 20 9 11 1012.5 1012.5 0.0
14/04:30pm 13.3 10.1 9.9 80 1.7 SW 17 20 9 11 1012.5 1012.5 0.0
14/04:00pm 13.6 10.0 10.4 81 1.7 SSW 20 24 11 13 1012.6 1012.6 0.0
14/03:30pm 13.6 10.5 10.2 80 1.8 SW 17 20 9 11 1012.8 1012.8 0.0
14/03:00pm 13.5 10.2 9.7 78 1.9 SW 17 20 9 11 1012.9 1012.9 0.0
14/02:30pm 13.7 10.0 10.3 80 1.8 SW 20 26 11 14 1013.0 1013.0 0.0
14/02:00pm 14.2 10.0 9.8 75 2.3 SW 22 28 12 15 1013.0 1013.0 0.0
14/01:30pm 15.3 12.1 11.9 80 1.8 SW 20 26 11 14 1013.3 1013.3 0.0
14/01:00pm 15.4 12.0 11.4 77 2.1 WSW 20 28 11 15 1013.7 1013.7 0.0
14/12:30pm 14.9 12.1 11.3 79 1.9 SW 17 20 9 11 1013.9 1013.9 0.0
14/12:00pm 14.8 11.6 11.4 80 1.8 WSW 19 24 10 13 1014.3 1014.3 0.0
14/11:30am 14.4 11.4 10.6 78 2.0 WSW 17 24 9 13 1014.7 1014.7 0.0
14/11:00am 13.9 10.2 10.3 79 1.9 W 20 28 11 15 1014.9 1014.9 0.0
14/10:30am 14.4 11.8 10.6 78 2.0 WSW 15 19 8 10 1014.9 1014.9 0.0
14/10:00am 14.3 12.1 10.7 79 1.9 W 13 17 7 9 1015.0 1015.0 0.0
14/09:30am 13.5 10.9 10.7 83 1.5 W 15 17 8 9 1014.9 1014.9 0.0
14/09:00am 12.7 11.3 10.9 89 0.9 W 9 13 5 7 1014.8 1014.8 1.4
14/08:30am 12.3 11.5 10.9 91 0.7 W 6 7 3 4 1014.8 1014.8 1.4
14/08:00am 11.1 9.0 9.9 92 0.6 WNW 11 13 6 7 1014.5 1014.5 1.4
14/07:30am 11.1 9.0 9.9 92 0.6 W 11 13 6 7 1014.1 1014.1 1.4
14/07:00am 10.8 8.3 9.7 93 0.6 W 13 17 7 9 1013.7 1013.7 1.4
14/06:30am 9.8 7.0 8.6 92 0.6 WNW 13 15 7 8 1013.5 1013.5 1.4
14/06:00am 11.0 8.1 9.6 91 0.7 W 15 19 8 10 1013.4 1013.4 1.4
14/05:30am 11.1 8.2 9.7 91 0.7 WSW 15 19 8 10 1013.1 1013.1 1.4
14/05:00am 10.9 8.0 9.5 91 0.7 WSW 15 19 8 10 1013.1 1013.1 1.4
14/04:30am 11.2 8.0 9.8 91 0.7 W 17 20 9 11 1013.1 1013.1 1.4
14/04:00am 11.2 8.0 9.8 91 0.7 W 17 24 9 13 1012.9 1012.9 1.4
14/03:30am 11.0 8.0 9.4 90 0.8 W 15 20 8 11 1012.9 1012.9 1.2
14/03:00am 11.1 8.1 9.4 89 0.9 WSW 15 19 8 10 1013.1 1013.1 1.2
14/02:30am 11.2 8.2 9.3 88 1.0 WSW 15 20 8 11 1013.4 1013.4 1.2
14/02:00am 11.5 8.5 9.4 87 1.1 WSW 15 20 8 11 1013.5 1013.5 1.2
14/01:30am 11.4 8.5 9.5 88 1.0 W 15 20 8 11 1013.7 1013.7 1.2
14/01:00am 11.3 8.0 9.6 89 0.9 W 17 24 9 13 1013.6 1013.6 1.2
14/12:30am 11.4 8.4 9.3 87 1.1 W 15 22 8 12 1013.6 1013.6 1.2
14/12:00am 11.7 9.9 9.6 87 1.1 SW 9 13 5 7 1013.8 1013.8 1.2
 
Date/Time
CST
Temp
°C
App
Temp
°C
Dew
Point
°C
Rel
Hum
%
Delta-T
°C
Wind Press
QNH
hPa
Press
MSL
hPa
Rain since
9am
mm
Dir  Spd
km/h
Gust
km/h
Spd
kts
Gust
kts
13/11:30pm 11.8 9.0 9.9 88 1.0 SSW 15 24 8 13 1013.8 1013.8 1.2
13/11:00pm 12.0 8.8 10.1 88 1.0 SSW 17 19 9 10 1013.8 1013.8 1.2
13/10:30pm 11.6 8.7 9.7 88 1.0 W 15 20 8 11 1014.0 1014.0 1.2
13/10:00pm 11.8 9.8 10.0 89 0.9 WSW 11 15 6 8 1014.0 1014.0 1.2
13/09:30pm 12.3 9.2 10.2 87 1.1 WSW 17 28 9 15 1014.0 1014.0 1.0
13/09:00pm 12.3 8.8 10.2 87 1.1 SW 19 22 10 12 1014.0 1014.0 0.2
13/08:30pm 12.6 9.1 10.3 86 1.2 SW 19 26 10 14 1013.8 1013.8 0.2
13/08:00pm 12.6 8.6 10.3 86 1.2 SSW 22 28 12 15 1013.6 1013.6 0.2
13/07:30pm 12.4 8.7 10.1 86 1.2 SSW 20 24 11 13 1013.4 1013.4 0.2
13/07:00pm 12.2 8.6 9.9 86 1.2 SW 19 24 10 13 1013.0 1013.0 0.2
13/06:30pm 12.3 8.7 10.0 86 1.2 W 19 26 10 14 1012.7 1012.7 0.2
13/06:00pm 12.2 8.6 9.8 85 1.2 WSW 19 24 10 13 1012.6 1012.6 0.2
13/05:30pm 12.6 8.0 9.8 83 1.4 SW 24 32 13 17 1012.5 1012.5 0.2
13/05:00pm 13.4 9.3 10.2 81 1.7 WSW 22 30 12 16 1012.5 1012.5 0.2
13/04:30pm 13.6 8.8 10.4 81 1.7 SW 26 33 14 18 1012.3 1012.3 0.2
13/04:00pm 14.0 9.8 11.0 82 1.6 SW 24 30 13 16 1012.3 1012.3 0.2
13/03:30pm 13.7 9.3 10.3 80 1.8 SW 24 32 13 17 1012.1 1012.1 0.2
13/03:00pm 13.5 8.9 11.0 85 1.3 SW 26 32 14 17 1012.3 1012.3 0.2
13/02:30pm 12.4 6.4 10.0 85 1.2 SW 32 41 17 22 1012.3 1012.3 0.2
13/02:00pm 14.3 9.9 10.3 77 2.1 SSW 24 30 13 16 1012.2 1012.2 0.0
13/01:30pm 14.5 9.4 10.7 78 2.0 SSW 28 33 15 18 1012.2 1012.2 0.0
13/01:00pm 14.8 10.3 10.2 74 2.4 SW 24 32 13 17 1012.2 1012.2 0.0
13/12:30pm 14.6 10.1 10.2 75 2.3 SW 24 32 13 17 1012.5 1012.5 0.0
13/12:00pm 14.3 9.3 9.7 74 2.4 SSW 26 32 14 17 1012.9 1012.9 0.0
13/11:30am 14.0 8.8 10.2 78 2.0 SSW 28 33 15 18 1013.1 1013.1 0.0
13/11:00am 14.1 10.5 10.5 79 1.9 SSW 20 26 11 14 1013.2 1013.2 0.0

Other formats

Comma delimited format used in spreadsheet applications
http://www.bom.gov.au/fwo/IDS60801/IDS60801.94677.axf

JavaScript Object Notation format (JSON) in row-major order
http://www.bom.gov.au/fwo/IDS60801/IDS60801.94677.json

Data quality

Most of these data are generated automatically and are frequently updated. Quality checks on data are not normally performed. It is possible for incorrect values to appear. Refer to information at About Latest Weather Observations and please check the disclaimer before using these data.